createdAt,value
2018-07-24T00:00:09.788Z,3.1
2018-07-24T00:05:11.978Z,4.2
2018-07-24T00:10:14.323Z,1.8
2018-07-24T00:15:16.609Z,3
2018-07-24T00:20:18.972Z,3.1
2018-07-24T00:25:21.302Z,5.5
2018-07-24T00:30:23.514Z,2
2018-07-24T00:35:25.872Z,2.9
2018-07-24T00:40:28.197Z,2.9
2018-07-24T00:45:30.309Z,3.8
2018-07-24T00:50:32.687Z,2.6
2018-07-24T00:55:35.038Z,3.9
2018-07-24T01:00:37.212Z,1.7
2018-07-24T01:05:39.597Z,2.4
2018-07-24T01:10:41.815Z,2.9
2018-07-24T01:15:44.176Z,0.7
2018-07-24T01:20:46.741Z,2.2
2018-07-24T01:25:48.784Z,2.6
2018-07-24T01:30:51.051Z,3.1
2018-07-24T01:35:53.331Z,1.5
2018-07-24T01:40:55.642Z,3.3
2018-07-24T01:45:57.955Z,2.7
2018-07-24T01:51:00.158Z,2.2
2018-07-24T01:56:02.471Z,2.2
2018-07-24T02:01:04.747Z,3.4
2018-07-24T02:06:07.195Z,3.7
2018-07-24T02:11:09.415Z,2.4
2018-07-24T02:16:11.728Z,2.2
2018-07-24T02:21:14.125Z,2.7
2018-07-24T02:26:16.301Z,2.3
2018-07-24T02:31:18.671Z,3.8
2018-07-24T02:36:20.937Z,1.7
2018-07-24T02:41:23.109Z,1.8
2018-07-24T02:46:25.431Z,2.3
2018-07-24T02:51:27.849Z,2.8
2018-07-24T02:56:30.025Z,2.2
2018-07-24T03:01:32.246Z,2.5
2018-07-24T03:06:34.637Z,3.9
2018-07-24T03:11:36.874Z,3.1
2018-07-24T03:16:39.285Z,2.5
2018-07-24T03:21:41.604Z,4.5
2018-07-24T03:26:43.808Z,4.5
2018-07-24T03:31:46.014Z,4.1
2018-07-24T03:36:48.331Z,5.4
2018-07-24T03:41:50.788Z,4.6
2018-07-24T03:46:52.962Z,2.7
2018-07-24T03:51:55.219Z,2.8
2018-07-24T03:56:57.591Z,5.7
2018-07-24T04:01:59.886Z,5.2
2018-07-24T04:07:02.217Z,3.2
2018-07-24T04:12:04.422Z,3.4
2018-07-24T04:17:06.880Z,2.3
2018-07-24T04:22:09.072Z,7.7
2018-07-24T04:27:11.323Z,3.9
2018-07-24T04:32:13.583Z,8.3
2018-07-24T04:37:16.126Z,8.3
2018-07-24T04:42:18.380Z,10.4
2018-07-24T04:47:20.529Z,9.4
2018-07-24T04:52:22.908Z,8.3
2018-07-24T04:57:25.092Z,11.1
2018-07-24T05:02:27.508Z,10.7
2018-07-24T05:07:29.704Z,13.2
2018-07-24T05:12:32.061Z,14
2018-07-24T05:17:34.255Z,8.4
2018-07-24T05:22:36.656Z,11.6
2018-07-24T05:27:38.862Z,14
2018-07-24T05:32:41.268Z,14.5
2018-07-24T05:37:43.573Z,12.6
2018-07-24T05:42:45.663Z,13.8
2018-07-24T05:47:48.205Z,12.2
2018-07-24T05:52:50.307Z,10.7
2018-07-24T05:57:52.599Z,14.6
2018-07-24T06:02:54.970Z,12
2018-07-24T06:07:57.153Z,14.4
2018-07-24T06:12:59.693Z,11.2
2018-07-24T06:18:01.907Z,12
2018-07-24T06:23:04.106Z,11.4
2018-07-24T06:28:06.346Z,10.2
2018-07-24T06:33:08.779Z,11.2
2018-07-24T06:38:10.986Z,10.7
2018-07-24T06:43:13.434Z,9.9
2018-07-24T06:48:15.711Z,12.3
2018-07-24T06:53:17.813Z,9.3
2018-07-24T06:58:20.860Z,10.9
2018-07-24T07:03:22.575Z,8.9
2018-07-24T07:08:24.844Z,8.8
2018-07-24T07:13:27.032Z,9.6
2018-07-24T07:18:29.386Z,9.7
2018-07-24T07:23:31.692Z,8.1
2018-07-24T07:28:33.892Z,8.4
2018-07-24T07:33:36.386Z,8.8
2018-07-24T07:38:38.566Z,7.2
2018-07-24T07:43:40.795Z,4.5
2018-07-24T07:48:43.124Z,5.9
2018-07-24T07:53:45.460Z,5.7
2018-07-24T07:58:47.741Z,6.6
2018-07-24T08:03:50.046Z,5.8
2018-07-24T08:08:52.335Z,7
2018-07-24T08:13:54.766Z,8.2
2018-07-24T08:18:56.834Z,6
2018-07-24T08:23:59.232Z,5.2
2018-07-24T08:29:01.536Z,3.9
2018-07-24T08:34:03.729Z,4.5
2018-07-24T08:39:06.156Z,4.2
2018-07-24T08:44:08.401Z,5.2
2018-07-24T08:49:10.763Z,6.4
2018-07-24T08:54:13.130Z,4.7
2018-07-24T08:59:15.374Z,6.4
2018-07-24T09:04:17.742Z,2.2
2018-07-24T09:09:19.764Z,3.1
2018-07-24T09:14:22.145Z,3.5
2018-07-24T09:19:24.377Z,4.5
2018-07-24T09:24:26.761Z,3.6
2018-07-24T09:29:29.152Z,3.6
2018-07-24T09:34:31.325Z,6.4
2018-07-24T09:39:33.662Z,4.4
2018-07-24T09:44:35.861Z,4.4
2018-07-24T09:49:38.144Z,4.4
2018-07-24T09:54:40.540Z,4.9
2018-07-24T09:59:42.879Z,4.1
2018-07-24T10:04:45.126Z,2.3
2018-07-24T10:09:47.473Z,5.7
2018-07-24T10:14:49.778Z,5.8
2018-07-24T10:19:51.988Z,4.6
2018-07-24T10:24:54.185Z,2.7
2018-07-24T10:29:56.570Z,2.5
2018-07-24T10:34:58.839Z,4.6
2018-07-24T10:40:01.219Z,4
2018-07-24T10:45:03.569Z,4
2018-07-24T10:50:05.826Z,5.5
2018-07-24T10:55:08.040Z,3.9
2018-07-24T11:00:10.260Z,3.6
2018-07-24T11:05:12.689Z,5.1
2018-07-24T11:10:14.961Z,3.7
2018-07-24T11:15:17.168Z,4.2
2018-07-24T11:20:19.419Z,3.2
2018-07-24T11:25:21.771Z,2.9
2018-07-24T11:30:24.061Z,2.6
2018-07-24T11:35:26.397Z,3.2
2018-07-24T11:40:28.723Z,3.3
2018-07-24T11:45:30.939Z,2.9
2018-07-24T11:50:33.341Z,1.8
2018-07-24T11:55:35.562Z,2.8
2018-07-24T12:00:37.861Z,4
2018-07-24T12:05:40.167Z,5
2018-07-24T12:10:42.543Z,5.9
2018-07-24T12:20:47.457Z,3.1
2018-07-24T12:25:49.297Z,3.7
2018-07-24T12:30:51.628Z,3.7
2018-07-24T12:35:53.935Z,3.4
2018-07-24T12:40:56.169Z,3
2018-07-24T12:45:58.444Z,3.9
2018-07-24T12:51:00.795Z,2.8
2018-07-24T12:56:03.084Z,3.9
2018-07-24T13:01:05.314Z,3.8
2018-07-24T13:06:07.842Z,4.2
2018-07-24T13:11:09.992Z,5
2018-07-24T13:16:12.251Z,4.4
2018-07-24T13:21:14.716Z,3.1
2018-07-24T13:26:16.987Z,3.3
2018-07-24T13:31:19.148Z,3.7
2018-07-24T13:36:21.437Z,4
2018-07-24T13:41:23.750Z,4
2018-07-24T13:46:26.028Z,4
2018-07-24T13:51:28.351Z,3.3
2018-07-24T13:56:30.558Z,2.9
2018-07-24T14:01:32.842Z,6
2018-07-24T14:06:35.134Z,4.8
2018-07-24T14:11:37.647Z,5.6
2018-07-24T14:16:39.834Z,5.5
2018-07-24T14:21:42.255Z,5.1
2018-07-24T14:26:44.388Z,4.4
2018-07-24T14:31:46.710Z,3.8
2018-07-24T14:36:49.051Z,4.8
2018-07-24T14:41:51.316Z,4.2
2018-07-24T14:46:53.563Z,6.2
2018-07-24T14:51:55.856Z,3.9
2018-07-24T14:56:58.266Z,3.8
2018-07-24T15:02:00.503Z,6.6
2018-07-24T15:07:02.818Z,3.6
2018-07-24T15:12:05.002Z,3
2018-07-24T15:17:07.453Z,4.8
2018-07-24T15:22:09.702Z,4.9
2018-07-24T15:27:11.895Z,5.5
2018-07-24T15:32:14.287Z,3.6
2018-07-24T15:37:16.557Z,3.5
2018-07-24T15:42:18.749Z,3.9
2018-07-24T15:47:21.125Z,3
2018-07-24T15:52:23.386Z,3.9
2018-07-24T15:57:25.738Z,2.3
2018-07-24T16:02:27.964Z,3.8
2018-07-24T16:07:30.325Z,3.3
2018-07-24T16:12:32.659Z,3.2
2018-07-24T16:17:36.386Z,3.9
2018-07-24T16:22:37.160Z,1.9
2018-07-24T16:27:39.371Z,3.3
2018-07-24T16:32:41.849Z,2.4
2018-07-24T16:37:44.415Z,2.9
2018-07-24T16:42:46.384Z,0.9
2018-07-24T16:47:48.655Z,2
2018-07-24T16:52:50.949Z,2.8
2018-07-24T16:57:53.222Z,2.7
2018-07-24T17:02:55.736Z,1
2018-07-24T17:07:57.831Z,1.8
2018-07-24T17:13:00.082Z,2
2018-07-24T17:18:02.541Z,2.5
2018-07-24T17:23:04.732Z,1.4
2018-07-24T17:28:07.011Z,0.8
2018-07-24T17:33:09.231Z,2.8
2018-07-24T17:38:11.551Z,1.8
2018-07-24T17:43:13.885Z,3.4
2018-07-24T17:48:16.378Z,2
2018-07-24T17:53:18.504Z,1.4
2018-07-24T17:58:20.720Z,2.4
2018-07-24T18:03:23.056Z,2.4
2018-07-24T18:08:25.384Z,2
2018-07-24T18:13:27.705Z,3.4
2018-07-24T18:18:30.016Z,1.6
2018-07-24T18:23:32.300Z,2.2
2018-07-24T18:28:34.681Z,1.1
2018-07-24T18:33:36.903Z,1.9
2018-07-24T18:38:39.173Z,1.7
2018-07-24T18:43:41.574Z,1.6
2018-07-24T18:48:44.784Z,2
2018-07-24T18:53:45.924Z,1.4
2018-07-24T18:58:48.313Z,2.6
2018-07-24T19:03:50.749Z,1.3
2018-07-24T19:08:52.930Z,1.7
2018-07-24T19:13:55.186Z,1.4
2018-07-24T19:18:57.482Z,1.6
2018-07-24T19:23:59.778Z,2.7
2018-07-24T19:29:02.213Z,1.2
2018-07-24T19:34:04.436Z,1.7
2018-07-24T19:39:06.624Z,1.3
2018-07-24T19:44:09.214Z,2.3
2018-07-24T19:49:11.232Z,1.7
2018-07-24T19:54:13.690Z,1.4
2018-07-24T19:59:15.994Z,1.6
2018-07-24T20:04:19.147Z,2.7
2018-07-24T20:09:20.515Z,2.1
2018-07-24T20:14:22.747Z,1.1
2018-07-24T20:19:24.931Z,2.4
2018-07-24T20:24:28.020Z,2
2018-07-24T20:29:29.667Z,2
2018-07-24T20:34:31.946Z,1
2018-07-24T20:39:34.215Z,2.2
2018-07-24T20:44:36.558Z,1.4
2018-07-24T20:49:38.958Z,1.6
2018-07-24T20:54:41.077Z,0.4
2018-07-24T20:59:43.562Z,0.9
2018-07-24T21:04:45.751Z,1.6
2018-07-24T21:09:47.943Z,3.3
2018-07-24T21:14:50.240Z,2
2018-07-24T21:19:52.564Z,2.1
2018-07-24T21:24:54.835Z,0.3
2018-07-24T21:29:57.149Z,1.4
2018-07-24T21:34:59.551Z,2.6
2018-07-24T21:40:01.765Z,1.5
2018-07-24T21:45:04.041Z,2.3
2018-07-24T21:50:06.381Z,1
2018-07-24T21:55:08.618Z,1.2
2018-07-24T22:00:11.059Z,1.1
2018-07-24T22:05:13.207Z,0.6
2018-07-24T22:10:15.444Z,1.4
2018-07-24T22:15:17.813Z,1.2
2018-07-24T22:20:20.136Z,1.2
2018-07-24T22:25:23.438Z,1.8
2018-07-24T22:30:24.681Z,1.7
2018-07-24T22:35:27.026Z,2.8
2018-07-24T22:40:29.336Z,1.3
2018-07-24T22:45:31.509Z,1.2
2018-07-24T22:50:33.847Z,0.8
2018-07-24T22:55:36.180Z,1.4
2018-07-24T23:00:38.418Z,1.8
2018-07-24T23:05:40.820Z,0.9
2018-07-24T23:10:43.119Z,1
2018-07-24T23:15:45.346Z,1.3
2018-07-24T23:20:47.620Z,1.4
2018-07-24T23:25:50.030Z,1.5
2018-07-24T23:30:52.263Z,1
2018-07-24T23:35:54.482Z,1.2
2018-07-24T23:40:56.821Z,1.5
2018-07-24T23:51:30.286Z,0.8
2018-07-24T23:56:32.521Z,1.1
